createdAt,value
2022-11-16T05:49:57.460Z,98257.59
2022-11-16T05:52:26.508Z,98249.03
2022-11-16T05:54:59.941Z,98247.88
2022-11-16T05:57:30.107Z,98242.69
2022-11-16T05:59:57.130Z,98236.06
2022-11-16T06:02:33.206Z,98236.53
2022-11-16T06:05:04.797Z,98231.44
2022-11-16T06:07:34.645Z,98238.72
2022-11-16T06:10:02.362Z,98236.66
2022-11-16T06:12:32.093Z,98238.94
2022-11-16T06:14:59.195Z,98247.66
2022-11-16T06:17:26.038Z,98237.22
2022-11-16T06:19:53.214Z,98251.09
2022-11-16T06:22:20.009Z,98238.13
2022-11-16T06:24:47.162Z,98236.03
2022-11-16T06:27:14.196Z,98242.44
2022-11-16T06:29:41.986Z,98253.31
2022-11-16T06:32:10.809Z,98240.31
2022-11-16T06:34:38.177Z,98245.53
2022-11-16T06:37:07.617Z,98241.69
2022-11-16T06:39:37.173Z,98241.47
2022-11-16T06:42:08.584Z,98237.41
2022-11-16T06:44:37.019Z,98231.38
2022-11-16T06:47:06.432Z,98226.03
2022-11-16T06:49:36.257Z,98218.72
2022-11-16T06:52:09.264Z,98206.22
2022-11-16T06:54:36.647Z,98200.38
2022-11-16T06:57:03.601Z,98199.13
2022-11-16T06:59:31.054Z,98200.50
2022-11-16T07:01:59.315Z,98198.16
2022-11-16T07:04:28.375Z,98205.81
2022-11-16T07:06:58.679Z,98210.88
2022-11-16T07:09:26.368Z,98197.59
2022-11-16T07:11:53.357Z,98203.84
2022-11-16T07:14:22.948Z,98196.28
2022-11-16T07:16:59.789Z,98191.38
2022-11-16T07:19:28.388Z,98190.94
2022-11-16T07:21:55.604Z,98187.91
2022-11-16T07:24:22.848Z,98197.53
2022-11-16T07:26:50.963Z,98189.53
2022-11-16T07:29:22.486Z,98185.59
2022-11-16T07:32:08.159Z,98200.19
2022-11-16T07:35:01.067Z,98195.06
2022-11-16T07:37:28.281Z,98182.41
2022-11-16T07:39:54.904Z,98195.63
2022-11-16T07:42:23.320Z,98200.50
2022-11-16T07:45:00.166Z,98209.97
2022-11-16T07:47:26.960Z,98205.66
2022-11-16T07:49:53.534Z,98197.75
2022-11-16T07:52:23.827Z,98195.66
2022-11-16T07:54:58.129Z,98195.41
2022-11-16T07:57:27.129Z,98198.66
2022-11-16T07:59:55.676Z,98187.25
2022-11-16T08:02:22.450Z,98199.28
2022-11-16T08:04:50.441Z,98199.63
2022-11-16T08:07:19.842Z,98199.16
2022-11-16T08:09:51.990Z,98194.34
2022-11-16T08:12:18.692Z,98188.56
2022-11-16T08:14:46.435Z,98192.19
2022-11-16T08:17:13.807Z,98201.25
2022-11-16T08:19:42.287Z,98187.81
2022-11-16T08:22:11.827Z,98179.72
2022-11-16T08:24:39.949Z,98188.38
2022-11-16T08:27:07.484Z,98185.06
2022-11-16T08:29:34.494Z,98190.41
2022-11-16T08:32:03.405Z,98186.59
2022-11-16T08:34:29.969Z,98189.53
2022-11-16T08:36:59.993Z,98195.03
2022-11-16T08:39:36.437Z,98193.91
2022-11-16T08:42:03.112Z,98186.75
2022-11-16T08:44:29.975Z,98188.47
2022-11-16T08:47:00.280Z,98181.72
2022-11-16T08:49:53.098Z,98196.72
2022-11-16T08:52:20.994Z,98196.31
2022-11-16T08:54:49.635Z,98205.69
2022-11-16T08:57:17.053Z,98209.81
2022-11-16T08:59:45.970Z,98206.53
2022-11-16T09:02:13.926Z,98213.63
2022-11-16T09:04:40.541Z,98220.69
2022-11-16T09:07:07.206Z,98207.16
2022-11-16T09:09:33.841Z,98217.59
2022-11-16T09:12:00.394Z,98220.59
2022-11-16T09:14:28.990Z,98217.84
2022-11-16T09:16:55.595Z,98219.13
2022-11-16T09:19:22.423Z,98225.94
2022-11-16T09:21:49.000Z,98226.34
2022-11-16T09:24:15.570Z,98221.63
2022-11-16T09:26:42.220Z,98222.75
2022-11-16T09:29:12.755Z,98219.78
2022-11-16T09:31:39.542Z,98211.19
2022-11-16T09:34:06.298Z,98212.50
2022-11-16T09:36:33.245Z,98216.06
2022-11-16T09:39:30.191Z,98209.34
2022-11-16T09:42:07.322Z,98224.25
2022-11-16T09:44:46.148Z,98217.69
2022-11-16T09:47:21.824Z,98214.53
2022-11-16T09:50:01.541Z,98207.00
2022-11-16T09:52:35.362Z,98210.50
2022-11-16T09:55:15.934Z,98212.50
2022-11-16T09:57:43.235Z,98210.06
2022-11-16T10:00:18.111Z,98205.16
2022-11-16T10:02:48.945Z,98207.91
2022-11-16T10:05:25.562Z,98203.19
2022-11-16T10:07:58.342Z,98196.41
2022-11-16T10:10:36.508Z,98198.34
2022-11-16T10:13:38.256Z,98203.19
2022-11-16T10:16:13.750Z,98200.06
2022-11-16T10:19:03.513Z,98194.53
2022-11-16T10:21:51.589Z,98189.94
2022-11-16T10:24:29.870Z,98187.50
2022-11-16T10:27:22.284Z,98195.59
2022-11-16T10:29:48.948Z,98193.41
2022-11-16T10:32:26.078Z,98193.16
2022-11-16T10:35:11.985Z,98188.06
2022-11-16T10:37:44.227Z,98190.88
2022-11-16T10:40:17.447Z,98187.25
2022-11-16T10:42:44.506Z,98190.75
2022-11-16T10:45:11.260Z,98182.09
2022-11-16T10:47:46.720Z,98182.09
2022-11-16T10:50:38.035Z,98183.22
2022-11-16T10:53:05.081Z,98182.94
2022-11-16T10:55:31.742Z,98180.19
2022-11-16T10:58:04.302Z,98178.50
2022-11-16T11:00:36.994Z,98178.06
2022-11-16T11:03:03.835Z,98173.28
2022-11-16T11:05:30.799Z,98176.53
2022-11-16T11:08:10.597Z,98181.47
2022-11-16T11:10:39.265Z,98175.91
2022-11-16T11:13:11.923Z,98177.81
2022-11-16T11:15:40.275Z,98172.22
2022-11-16T11:18:15.920Z,98174.81
2022-11-16T11:20:45.460Z,98171.13
2022-11-16T11:23:15.450Z,98164.06
2022-11-16T11:25:52.581Z,98169.50
2022-11-16T11:28:23.784Z,98167.31
2022-11-16T11:31:02.661Z,98174.91
2022-11-16T11:33:36.948Z,98171.28
2022-11-16T11:36:08.488Z,98169.16
2022-11-16T11:38:58.446Z,98169.75
2022-11-16T11:41:25.192Z,98167.09
2022-11-16T11:44:06.169Z,98166.13
2022-11-16T11:47:11.030Z,98164.91
2022-11-16T11:49:33.281Z,98153.69
2022-11-16T11:52:05.213Z,98158.53
2022-11-16T11:54:34.106Z,98154.44
2022-11-16T11:57:03.076Z,98146.41
2022-11-16T11:59:29.945Z,98150.66
2022-11-16T12:02:02.831Z,98154.22
2022-11-16T12:04:32.473Z,98156.69
2022-11-16T12:07:18.220Z,98156.94
2022-11-16T12:10:03.242Z,98154.47
2022-11-16T12:12:47.816Z,98148.56
2022-11-16T12:15:43.313Z,98158.50
2022-11-16T12:18:26.509Z,98164.44
2022-11-16T12:21:02.730Z,98154.94
2022-11-16T12:23:52.266Z,98149.75
2022-11-16T12:26:34.138Z,98159.31
2022-11-16T12:29:28.609Z,98150.06
2022-11-16T12:32:17.506Z,98161.84
2022-11-16T12:35:15.681Z,98156.72
2022-11-16T12:37:49.298Z,98154.56
2022-11-16T12:40:27.903Z,98153.28
2022-11-16T12:42:54.419Z,98154.16
2022-11-16T12:45:46.840Z,98146.16
2022-11-16T12:48:38.100Z,98154.81
2022-11-16T12:51:31.580Z,98148.75
2022-11-16T12:54:12.208Z,98143.50
2022-11-16T12:57:01.705Z,98138.06
2022-11-16T12:59:39.096Z,98135.53
2022-11-16T13:02:31.517Z,98140.47
2022-11-16T13:05:13.839Z,98140.38
2022-11-16T13:07:50.560Z,98135.44
2022-11-16T13:10:21.385Z,98139.81
2022-11-16T13:12:55.881Z,98124.56
2022-11-16T13:15:40.729Z,98138.94
2022-11-16T13:18:12.619Z,98133.34
2022-11-16T13:20:52.687Z,98127.63
2022-11-16T13:23:31.683Z,98126.16
2022-11-16T13:26:10.379Z,98122.22
2022-11-16T13:28:42.661Z,98127.13
2022-11-16T13:31:33.480Z,98118.88
2022-11-16T13:34:03.624Z,98113.53
2022-11-16T13:36:43.197Z,98116.94
2022-11-16T13:39:12.988Z,98108.94
2022-11-16T13:41:48.157Z,98115.16
2022-11-16T13:44:23.788Z,98115.44
2022-11-16T13:46:56.788Z,98103.22
2022-11-16T13:49:33.879Z,98112.91
2022-11-16T13:52:23.077Z,98114.19
2022-11-16T13:54:53.690Z,98107.84
2022-11-16T13:57:32.431Z,98097.78
2022-11-16T14:00:01.988Z,98106.31
2022-11-16T14:02:38.712Z,98101.94
2022-11-16T14:05:26.958Z,98103.44
2022-11-16T14:07:53.572Z,98105.34
2022-11-16T14:10:34.987Z,98107.72
2022-11-16T14:13:04.288Z,98111.44
2022-11-16T14:15:35.869Z,98106.75
2022-11-16T14:18:09.214Z,98098.31
2022-11-16T14:21:09.567Z,98099.69
2022-11-16T14:24:15.475Z,98093.75
2022-11-16T14:27:00.638Z,98099.38
2022-11-16T14:29:51.196Z,98096.31
2022-11-16T14:32:26.173Z,98088.34
2022-11-16T14:34:55.322Z,98087.84
2022-11-16T14:37:21.825Z,98086.91
2022-11-16T14:39:50.186Z,98076.94
2022-11-16T14:42:20.401Z,98076.28
2022-11-16T14:44:47.695Z,98067.47
2022-11-16T14:47:25.558Z,98071.84
2022-11-16T14:49:53.234Z,98070.63
2022-11-16T14:52:28.681Z,98062.94
2022-11-16T14:55:00.198Z,98068.28
2022-11-16T14:57:26.956Z,98067.69
2022-11-16T15:00:18.393Z,98062.75
2022-11-16T15:02:59.165Z,98071.06
2022-11-16T15:05:33.056Z,98067.06
2022-11-16T15:07:59.956Z,98062.94
2022-11-16T15:10:28.540Z,98064.72
2022-11-16T15:12:56.304Z,98056.84
2022-11-16T15:15:26.778Z,98064.50
2022-11-16T15:17:59.605Z,98056.13
2022-11-16T15:20:29.041Z,98059.34
2022-11-16T15:22:58.265Z,98044.91
2022-11-16T15:25:38.255Z,98056.91
2022-11-16T15:28:22.094Z,98046.44
2022-11-16T15:30:57.963Z,98053.13
2022-11-16T15:33:46.480Z,98049.13
2022-11-16T15:36:38.373Z,98043.28
2022-11-16T15:39:06.476Z,98038.72
2022-11-16T15:41:34.028Z,98046.13
2022-11-16T15:44:19.180Z,98046.81
2022-11-16T15:46:48.391Z,98039.56
2022-11-16T15:49:33.201Z,98048.19
2022-11-16T15:52:00.231Z,98044.94
2022-11-16T15:54:54.746Z,98038.34
2022-11-16T15:57:23.337Z,98030.25
2022-11-16T15:59:56.010Z,98039.06
2022-11-16T16:02:24.530Z,98028.53
2022-11-16T16:04:51.138Z,98037.47
2022-11-16T16:07:46.875Z,98038.78
2022-11-16T16:10:19.729Z,98048.25
2022-11-16T16:12:54.550Z,98043.63
2022-11-16T16:15:23.814Z,98040.84
2022-11-16T16:17:50.828Z,98038.31
2022-11-16T16:20:19.422Z,98046.56
2022-11-16T16:22:46.394Z,98041.22
2022-11-16T16:25:30.427Z,98048.97
2022-11-16T16:27:58.169Z,98047.47
2022-11-16T16:30:24.947Z,98041.78
2022-11-16T16:32:51.848Z,98039.78
2022-11-16T16:35:21.244Z,98041.19
2022-11-16T16:37:59.308Z,98041.44
2022-11-16T16:40:27.419Z,98046.84
2022-11-16T16:42:58.176Z,98026.84
2022-11-16T16:45:42.001Z,98037.25
2022-11-16T16:48:12.311Z,98040.97
2022-11-16T16:50:39.427Z,98032.22
2022-11-16T16:53:06.539Z,98038.88
2022-11-16T16:55:37.443Z,98035.88
2022-11-16T16:58:04.915Z,98038.97
2022-11-16T17:00:32.003Z,98030.91
2022-11-16T17:02:59.757Z,98042.81
2022-11-16T17:05:26.776Z,98034.06
2022-11-16T17:07:59.419Z,98033.56
2022-11-16T17:10:26.894Z,98048.38
2022-11-16T17:13:03.282Z,98038.97
2022-11-16T22:06:00.732Z,97966.63
2022-11-16T22:08:40.060Z,97964.88
2022-11-16T22:11:08.119Z,97964.88
2022-11-16T22:13:48.023Z,97972.38
